sensor_id;sensor_type;location;lat;lon;timestamp;P1;durP1;ratioP1;P2;durP2;ratioP2
34739;SDS011;20967;48.442;9.994;2023-05-07T00:00:03;12.43;;;5.40;;
34739;SDS011;20967;48.442;9.994;2023-05-07T00:02:33;9.70;;;5.12;;
34739;SDS011;20967;48.442;9.994;2023-05-07T00:05:01;9.20;;;5.00;;
34739;SDS011;20967;48.442;9.994;2023-05-07T00:07:28;9.43;;;5.62;;
34739;SDS011;20967;48.442;9.994;2023-05-07T00:09:56;9.28;;;5.30;;
34739;SDS011;20967;48.442;9.994;2023-05-07T00:12:24;7.53;;;4.92;;
34739;SDS011;20967;48.442;9.994;2023-05-07T00:14:51;11.83;;;6.25;;
34739;SDS011;20967;48.442;9.994;2023-05-07T00:17:19;9.18;;;5.67;;
34739;SDS011;20967;48.442;9.994;2023-05-07T00:19:47;12.37;;;5.72;;
34739;SDS011;20967;48.442;9.994;2023-05-07T00:22:14;14.40;;;5.75;;
34739;SDS011;20967;48.442;9.994;2023-05-07T00:24:42;11.55;;;5.58;;
34739;SDS011;20967;48.442;9.994;2023-05-07T00:27:09;13.62;;;5.65;;
34739;SDS011;20967;48.442;9.994;2023-05-07T00:29:37;10.08;;;5.20;;
34739;SDS011;20967;48.442;9.994;2023-05-07T00:32:04;13.43;;;5.55;;
34739;SDS011;20967;48.442;9.994;2023-05-07T00:34:32;11.83;;;5.10;;
34739;SDS011;20967;48.442;9.994;2023-05-07T00:37:01;9.35;;;5.33;;
34739;SDS011;20967;48.442;9.994;2023-05-07T00:39:28;8.85;;;4.72;;
34739;SDS011;20967;48.442;9.994;2023-05-07T00:41:56;8.70;;;5.62;;
34739;SDS011;20967;48.442;9.994;2023-05-07T00:44:23;12.40;;;4.55;;
34739;SDS011;20967;48.442;9.994;2023-05-07T00:46:51;13.65;;;4.42;;
34739;SDS011;20967;48.442;9.994;2023-05-07T00:49:19;8.20;;;4.83;;
34739;SDS011;20967;48.442;9.994;2023-05-07T00:51:47;8.80;;;4.95;;
34739;SDS011;20967;48.442;9.994;2023-05-07T00:54:14;9.68;;;4.87;;
34739;SDS011;20967;48.442;9.994;2023-05-07T00:56:42;9.68;;;4.55;;
34739;SDS011;20967;48.442;9.994;2023-05-07T00:59:09;7.22;;;3.98;;
34739;SDS011;20967;48.442;9.994;2023-05-07T01:01:37;10.03;;;4.47;;
34739;SDS011;20967;48.442;9.994;2023-05-07T01:04:05;7.72;;;4.42;;
34739;SDS011;20967;48.442;9.994;2023-05-07T01:06:32;8.63;;;4.80;;
34739;SDS011;20967;48.442;9.994;2023-05-07T01:09:00;11.65;;;4.58;;
34739;SDS011;20967;48.442;9.994;2023-05-07T01:11:27;9.10;;;4.22;;
34739;SDS011;20967;48.442;9.994;2023-05-07T01:13:55;11.05;;;4.50;;
34739;SDS011;20967;48.442;9.994;2023-05-07T01:16:23;5.85;;;4.03;;
34739;SDS011;20967;48.442;9.994;2023-05-07T01:18:50;9.13;;;4.62;;
34739;SDS011;20967;48.442;9.994;2023-05-07T01:21:18;10.38;;;5.03;;
34739;SDS011;20967;48.442;9.994;2023-05-07T01:23:47;8.85;;;4.08;;
34739;SDS011;20967;48.442;9.994;2023-05-07T01:26:15;11.57;;;4.90;;
34739;SDS011;20967;48.442;9.994;2023-05-07T01:28:42;7.25;;;4.92;;
34739;SDS011;20967;48.442;9.994;2023-05-07T01:31:10;7.42;;;4.78;;
34739;SDS011;20967;48.442;9.994;2023-05-07T01:33:39;13.62;;;4.37;;
34739;SDS011;20967;48.442;9.994;2023-05-07T01:36:07;8.70;;;5.22;;
34739;SDS011;20967;48.442;9.994;2023-05-07T01:38:36;7.42;;;4.25;;
34739;SDS011;20967;48.442;9.994;2023-05-07T01:41:05;12.58;;;4.62;;
34739;SDS011;20967;48.442;9.994;2023-05-07T01:43:32;9.15;;;5.03;;
34739;SDS011;20967;48.442;9.994;2023-05-07T01:46:01;8.93;;;4.35;;
34739;SDS011;20967;48.442;9.994;2023-05-07T01:48:28;10.25;;;4.00;;
34739;SDS011;20967;48.442;9.994;2023-05-07T01:50:56;7.33;;;4.50;;
34739;SDS011;20967;48.442;9.994;2023-05-07T01:53:26;9.13;;;4.42;;
34739;SDS011;20967;48.442;9.994;2023-05-07T01:55:54;7.05;;;4.37;;
34739;SDS011;20967;48.442;9.994;2023-05-07T01:58:21;8.90;;;4.55;;
34739;SDS011;20967;48.442;9.994;2023-05-07T02:00:49;21.37;;;5.40;;
34739;SDS011;20967;48.442;9.994;2023-05-07T02:03:17;8.93;;;4.42;;
34739;SDS011;20967;48.442;9.994;2023-05-07T02:05:44;7.65;;;4.47;;
34739;SDS011;20967;48.442;9.994;2023-05-07T02:08:12;7.60;;;4.83;;
34739;SDS011;20967;48.442;9.994;2023-05-07T02:10:39;9.75;;;4.67;;
34739;SDS011;20967;48.442;9.994;2023-05-07T02:13:07;8.75;;;4.10;;
34739;SDS011;20967;48.442;9.994;2023-05-07T02:15:36;7.60;;;4.30;;
34739;SDS011;20967;48.442;9.994;2023-05-07T02:18:07;6.85;;;4.55;;
34739;SDS011;20967;48.442;9.994;2023-05-07T02:20:37;10.65;;;4.28;;
34739;SDS011;20967;48.442;9.994;2023-05-07T02:23:04;9.68;;;4.30;;
34739;SDS011;20967;48.442;9.994;2023-05-07T02:25:32;12.07;;;4.83;;
34739;SDS011;20967;48.442;9.994;2023-05-07T02:27:59;6.65;;;4.47;;
34739;SDS011;20967;48.442;9.994;2023-05-07T02:30:28;6.85;;;3.95;;
34739;SDS011;20967;48.442;9.994;2023-05-07T02:32:55;7.03;;;4.35;;
34739;SDS011;20967;48.442;9.994;2023-05-07T02:35:24;8.05;;;4.58;;
34739;SDS011;20967;48.442;9.994;2023-05-07T02:37:51;8.60;;;4.67;;
34739;SDS011;20967;48.442;9.994;2023-05-07T02:40:19;7.50;;;5.12;;
34739;SDS011;20967;48.442;9.994;2023-05-07T02:42:46;6.85;;;4.28;;
34739;SDS011;20967;48.442;9.994;2023-05-07T02:45:16;14.18;;;4.60;;
34739;SDS011;20967;48.442;9.994;2023-05-07T02:47:43;9.28;;;5.05;;
34739;SDS011;20967;48.442;9.994;2023-05-07T02:50:11;11.88;;;4.45;;
34739;SDS011;20967;48.442;9.994;2023-05-07T02:52:38;10.80;;;4.58;;
34739;SDS011;20967;48.442;9.994;2023-05-07T02:55:06;7.75;;;4.53;;
34739;SDS011;20967;48.442;9.994;2023-05-07T02:57:33;7.45;;;4.70;;
34739;SDS011;20967;48.442;9.994;2023-05-07T03:00:09;6.28;;;4.87;;
34739;SDS011;20967;48.442;9.994;2023-05-07T03:02:30;12.63;;;5.28;;
34739;SDS011;20967;48.442;9.994;2023-05-07T03:04:57;8.30;;;4.53;;
34739;SDS011;20967;48.442;9.994;2023-05-07T03:07:25;7.12;;;5.08;;
34739;SDS011;20967;48.442;9.994;2023-05-07T03:09:56;11.53;;;5.12;;
34739;SDS011;20967;48.442;9.994;2023-05-07T03:12:23;7.85;;;5.03;;
34739;SDS011;20967;48.442;9.994;2023-05-07T03:14:51;7.22;;;5.00;;
34739;SDS011;20967;48.442;9.994;2023-05-07T03:17:18;7.95;;;4.83;;
34739;SDS011;20967;48.442;9.994;2023-05-07T03:19:46;15.90;;;5.37;;
34739;SDS011;20967;48.442;9.994;2023-05-07T03:22:14;11.85;;;5.28;;
34739;SDS011;20967;48.442;9.994;2023-05-07T03:24:41;8.70;;;5.28;;
34739;SDS011;20967;48.442;9.994;2023-05-07T03:27:09;9.78;;;5.72;;
34739;SDS011;20967;48.442;9.994;2023-05-07T03:29:36;8.98;;;5.78;;
34739;SDS011;20967;48.442;9.994;2023-05-07T03:32:04;11.20;;;5.22;;
34739;SDS011;20967;48.442;9.994;2023-05-07T03:34:32;10.48;;;5.95;;
34739;SDS011;20967;48.442;9.994;2023-05-07T03:37:00;11.33;;;6.20;;
34739;SDS011;20967;48.442;9.994;2023-05-07T03:39:27;10.13;;;5.45;;
34739;SDS011;20967;48.442;9.994;2023-05-07T03:41:55;8.90;;;5.35;;
34739;SDS011;20967;48.442;9.994;2023-05-07T03:44:22;7.97;;;5.10;;
34739;SDS011;20967;48.442;9.994;2023-05-07T03:46:50;13.30;;;5.75;;
34739;SDS011;20967;48.442;9.994;2023-05-07T03:49:17;11.93;;;6.08;;
34739;SDS011;20967;48.442;9.994;2023-05-07T03:51:45;8.63;;;5.85;;
34739;SDS011;20967;48.442;9.994;2023-05-07T03:54:12;6.45;;;4.58;;
34739;SDS011;20967;48.442;9.994;2023-05-07T03:56:40;9.08;;;5.40;;
34739;SDS011;20967;48.442;9.994;2023-05-07T03:59:07;11.30;;;5.85;;
34739;SDS011;20967;48.442;9.994;2023-05-07T04:01:35;8.53;;;5.00;;
34739;SDS011;20967;48.442;9.994;2023-05-07T04:04:02;12.73;;;5.87;;
34739;SDS011;20967;48.442;9.994;2023-05-07T04:06:30;13.60;;;5.65;;
34739;SDS011;20967;48.442;9.994;2023-05-07T04:08:58;11.15;;;5.75;;
34739;SDS011;20967;48.442;9.994;2023-05-07T04:11:26;10.80;;;5.75;;
34739;SDS011;20967;48.442;9.994;2023-05-07T04:13:53;15.05;;;6.30;;
34739;SDS011;20967;48.442;9.994;2023-05-07T04:16:21;15.05;;;5.95;;
34739;SDS011;20967;48.442;9.994;2023-05-07T04:18:49;7.33;;;4.97;;
34739;SDS011;20967;48.442;9.994;2023-05-07T04:21:17;9.13;;;5.08;;
34739;SDS011;20967;48.442;9.994;2023-05-07T04:23:49;9.95;;;4.87;;
34739;SDS011;20967;48.442;9.994;2023-05-07T04:26:14;8.05;;;5.60;;
34739;SDS011;20967;48.442;9.994;2023-05-07T04:28:42;10.43;;;4.83;;
34739;SDS011;20967;48.442;9.994;2023-05-07T04:31:10;8.80;;;4.42;;
34739;SDS011;20967;48.442;9.994;2023-05-07T04:33:37;9.35;;;3.95;;
34739;SDS011;20967;48.442;9.994;2023-05-07T04:36:05;6.75;;;4.20;;
34739;SDS011;20967;48.442;9.994;2023-05-07T04:38:32;6.62;;;4.37;;
34739;SDS011;20967;48.442;9.994;2023-05-07T04:41:03;9.78;;;4.55;;
34739;SDS011;20967;48.442;9.994;2023-05-07T04:43:31;8.23;;;4.60;;
34739;SDS011;20967;48.442;9.994;2023-05-07T04:45:59;6.95;;;4.40;;
34739;SDS011;20967;48.442;9.994;2023-05-07T04:48:27;12.45;;;5.12;;
34739;SDS011;20967;48.442;9.994;2023-05-07T04:50:55;8.98;;;4.90;;
34739;SDS011;20967;48.442;9.994;2023-05-07T04:53:22;6.60;;;4.00;;
34739;SDS011;20967;48.442;9.994;2023-05-07T04:55:54;7.03;;;4.12;;
34739;SDS011;20967;48.442;9.994;2023-05-07T04:58:19;8.13;;;4.00;;
34739;SDS011;20967;48.442;9.994;2023-05-07T05:00:47;7.35;;;3.90;;
34739;SDS011;20967;48.442;9.994;2023-05-07T05:03:14;4.30;;;3.08;;
34739;SDS011;20967;48.442;9.994;2023-05-07T05:05:42;6.97;;;3.35;;
34739;SDS011;20967;48.442;9.994;2023-05-07T05:08:09;3.70;;;2.98;;
34739;SDS011;20967;48.442;9.994;2023-05-07T05:10:37;5.62;;;3.02;;
34739;SDS011;20967;48.442;9.994;2023-05-07T05:13:04;4.70;;;2.77;;
34739;SDS011;20967;48.442;9.994;2023-05-07T05:15:32;7.17;;;3.33;;
34739;SDS011;20967;48.442;9.994;2023-05-07T05:17:59;5.45;;;2.70;;
34739;SDS011;20967;48.442;9.994;2023-05-07T05:20:27;7.03;;;3.08;;
34739;SDS011;20967;48.442;9.994;2023-05-07T05:22:54;4.42;;;3.17;;
34739;SDS011;20967;48.442;9.994;2023-05-07T05:25:22;6.03;;;3.10;;
34739;SDS011;20967;48.442;9.994;2023-05-07T05:27:49;10.63;;;3.22;;
34739;SDS011;20967;48.442;9.994;2023-05-07T05:30:17;3.98;;;3.00;;
34739;SDS011;20967;48.442;9.994;2023-05-07T05:32:44;8.95;;;2.98;;
34739;SDS011;20967;48.442;9.994;2023-05-07T05:35:12;5.05;;;2.87;;
34739;SDS011;20967;48.442;9.994;2023-05-07T05:37:40;3.80;;;2.77;;
34739;SDS011;20967;48.442;9.994;2023-05-07T05:40:07;3.90;;;2.83;;
34739;SDS011;20967;48.442;9.994;2023-05-07T05:42:35;5.62;;;3.00;;
34739;SDS011;20967;48.442;9.994;2023-05-07T05:45:03;5.65;;;2.70;;
34739;SDS011;20967;48.442;9.994;2023-05-07T05:47:31;4.78;;;2.77;;
34739;SDS011;20967;48.442;9.994;2023-05-07T05:49:58;4.80;;;2.80;;
34739;SDS011;20967;48.442;9.994;2023-05-07T05:52:26;4.62;;;2.98;;
34739;SDS011;20967;48.442;9.994;2023-05-07T05:54:53;4.42;;;3.25;;
34739;SDS011;20967;48.442;9.994;2023-05-07T05:57:21;5.67;;;2.98;;
34739;SDS011;20967;48.442;9.994;2023-05-07T05:59:48;5.67;;;3.58;;
34739;SDS011;20967;48.442;9.994;2023-05-07T06:02:16;6.42;;;3.77;;
34739;SDS011;20967;48.442;9.994;2023-05-07T06:04:43;5.50;;;3.52;;
34739;SDS011;20967;48.442;9.994;2023-05-07T06:07:11;9.25;;;3.62;;
34739;SDS011;20967;48.442;9.994;2023-05-07T06:09:40;4.92;;;3.60;;
34739;SDS011;20967;48.442;9.994;2023-05-07T06:12:08;8.10;;;3.70;;
34739;SDS011;20967;48.442;9.994;2023-05-07T06:14:35;9.40;;;4.70;;
34739;SDS011;20967;48.442;9.994;2023-05-07T06:17:03;6.78;;;4.12;;
34739;SDS011;20967;48.442;9.994;2023-05-07T06:19:30;6.28;;;4.37;;
34739;SDS011;20967;48.442;9.994;2023-05-07T06:21:58;5.67;;;4.35;;
34739;SDS011;20967;48.442;9.994;2023-05-07T06:24:27;6.42;;;4.53;;
34739;SDS011;20967;48.442;9.994;2023-05-07T06:26:55;8.78;;;4.60;;
34739;SDS011;20967;48.442;9.994;2023-05-07T06:29:25;7.90;;;5.67;;
34739;SDS011;20967;48.442;9.994;2023-05-07T06:31:54;8.23;;;5.47;;
34739;SDS011;20967;48.442;9.994;2023-05-07T06:36:57;12.90;;;6.90;;
34739;SDS011;20967;48.442;9.994;2023-05-07T06:39:29;11.10;;;7.08;;
34739;SDS011;20967;48.442;9.994;2023-05-07T06:42:01;10.10;;;6.90;;
34739;SDS011;20967;48.442;9.994;2023-05-07T06:44:32;10.50;;;6.78;;
34739;SDS011;20967;48.442;9.994;2023-05-07T06:47:01;12.03;;;6.85;;
34739;SDS011;20967;48.442;9.994;2023-05-07T06:49:31;12.37;;;6.28;;
34739;SDS011;20967;48.442;9.994;2023-05-07T06:52:03;12.05;;;6.87;;
34739;SDS011;20967;48.442;9.994;2023-05-07T06:54:32;10.60;;;7.03;;
34739;SDS011;20967;48.442;9.994;2023-05-07T06:57:04;8.53;;;5.95;;
34739;SDS011;20967;48.442;9.994;2023-05-07T06:59:34;9.30;;;6.27;;
34739;SDS011;20967;48.442;9.994;2023-05-07T07:02:06;8.15;;;5.95;;
34739;SDS011;20967;48.442;9.994;2023-05-07T07:04:37;10.05;;;6.15;;
34739;SDS011;20967;48.442;9.994;2023-05-07T07:07:08;10.00;;;5.90;;
34739;SDS011;20967;48.442;9.994;2023-05-07T07:09:39;7.03;;;5.60;;
34739;SDS011;20967;48.442;9.994;2023-05-07T07:12:11;10.45;;;6.50;;
34739;SDS011;20967;48.442;9.994;2023-05-07T07:14:43;8.43;;;5.92;;
34739;SDS011;20967;48.442;9.994;2023-05-07T07:17:15;8.25;;;5.40;;
34739;SDS011;20967;48.442;9.994;2023-05-07T07:19:47;10.82;;;6.47;;
34739;SDS011;20967;48.442;9.994;2023-05-07T07:22:16;9.25;;;5.20;;
34739;SDS011;20967;48.442;9.994;2023-05-07T07:24:48;8.13;;;5.58;;
34739;SDS011;20967;48.442;9.994;2023-05-07T07:27:18;8.88;;;5.55;;
34739;SDS011;20967;48.442;9.994;2023-05-07T07:29:46;9.03;;;5.40;;
34739;SDS011;20967;48.442;9.994;2023-05-07T07:32:13;8.33;;;5.22;;
34739;SDS011;20967;48.442;9.994;2023-05-07T07:34:41;9.85;;;5.17;;
34739;SDS011;20967;48.442;9.994;2023-05-07T07:37:08;7.42;;;4.70;;
34739;SDS011;20967;48.442;9.994;2023-05-07T07:39:36;6.30;;;4.47;;
34739;SDS011;20967;48.442;9.994;2023-05-07T07:42:06;9.88;;;5.35;;
34739;SDS011;20967;48.442;9.994;2023-05-07T07:44:33;7.92;;;5.28;;
34739;SDS011;20967;48.442;9.994;2023-05-07T07:47:01;7.37;;;5.17;;
34739;SDS011;20967;48.442;9.994;2023-05-07T07:49:28;7.60;;;4.45;;
34739;SDS011;20967;48.442;9.994;2023-05-07T07:51:56;10.38;;;5.22;;
34739;SDS011;20967;48.442;9.994;2023-05-07T07:54:25;9.68;;;5.28;;
34739;SDS011;20967;48.442;9.994;2023-05-07T07:56:53;10.75;;;5.53;;
34739;SDS011;20967;48.442;9.994;2023-05-07T07:59:20;6.03;;;4.95;;
34739;SDS011;20967;48.442;9.994;2023-05-07T08:01:48;10.60;;;5.08;;
34739;SDS011;20967;48.442;9.994;2023-05-07T08:04:16;9.63;;;4.95;;
34739;SDS011;20967;48.442;9.994;2023-05-07T08:06:44;7.65;;;5.17;;
34739;SDS011;20967;48.442;9.994;2023-05-07T08:09:11;6.87;;;5.30;;
34739;SDS011;20967;48.442;9.994;2023-05-07T08:11:39;8.28;;;5.78;;
34739;SDS011;20967;48.442;9.994;2023-05-07T08:14:07;8.10;;;5.97;;
34739;SDS011;20967;48.442;9.994;2023-05-07T08:16:34;8.28;;;5.03;;
34739;SDS011;20967;48.442;9.994;2023-05-07T08:19:02;7.40;;;5.25;;
34739;SDS011;20967;48.442;9.994;2023-05-07T08:21:29;8.88;;;5.35;;
34739;SDS011;20967;48.442;9.994;2023-05-07T08:23:57;9.18;;;5.35;;
34739;SDS011;20967;48.442;9.994;2023-05-07T08:26:24;12.13;;;6.12;;
34739;SDS011;20967;48.442;9.994;2023-05-07T08:28:52;7.12;;;5.47;;
34739;SDS011;20967;48.442;9.994;2023-05-07T08:31:19;12.53;;;6.10;;
34739;SDS011;20967;48.442;9.994;2023-05-07T08:33:47;9.58;;;5.85;;
34739;SDS011;20967;48.442;9.994;2023-05-07T08:36:14;11.33;;;6.17;;
34739;SDS011;20967;48.442;9.994;2023-05-07T08:38:42;9.83;;;5.65;;
34739;SDS011;20967;48.442;9.994;2023-05-07T08:41:11;9.10;;;5.75;;
34739;SDS011;20967;48.442;9.994;2023-05-07T08:43:40;9.13;;;5.85;;
34739;SDS011;20967;48.442;9.994;2023-05-07T08:46:08;10.38;;;6.15;;
34739;SDS011;20967;48.442;9.994;2023-05-07T08:48:37;8.90;;;6.45;;
34739;SDS011;20967;48.442;9.994;2023-05-07T08:51:05;7.67;;;5.30;;
34739;SDS011;20967;48.442;9.994;2023-05-07T08:53:33;12.68;;;6.20;;
34739;SDS011;20967;48.442;9.994;2023-05-07T08:56:00;12.75;;;6.70;;
34739;SDS011;20967;48.442;9.994;2023-05-07T08:58:28;9.73;;;6.65;;
34739;SDS011;20967;48.442;9.994;2023-05-07T09:00:55;11.00;;;6.50;;
34739;SDS011;20967;48.442;9.994;2023-05-07T09:03:23;11.22;;;6.72;;
34739;SDS011;20967;48.442;9.994;2023-05-07T09:05:50;10.08;;;5.92;;
34739;SDS011;20967;48.442;9.994;2023-05-07T09:08:18;7.35;;;5.90;;
34739;SDS011;20967;48.442;9.994;2023-05-07T09:10:46;7.22;;;5.37;;
34739;SDS011;20967;48.442;9.994;2023-05-07T09:13:15;8.78;;;5.95;;
34739;SDS011;20967;48.442;9.994;2023-05-07T09:15:44;15.28;;;6.97;;
34739;SDS011;20967;48.442;9.994;2023-05-07T09:18:12;10.30;;;5.95;;
34739;SDS011;20967;48.442;9.994;2023-05-07T09:20:40;9.23;;;6.00;;
34739;SDS011;20967;48.442;9.994;2023-05-07T09:23:08;8.05;;;5.47;;
34739;SDS011;20967;48.442;9.994;2023-05-07T09:25:36;9.30;;;6.30;;
34739;SDS011;20967;48.442;9.994;2023-05-07T09:28:04;8.05;;;5.70;;
34739;SDS011;20967;48.442;9.994;2023-05-07T09:30:33;10.03;;;5.62;;
34739;SDS011;20967;48.442;9.994;2023-05-07T09:33:03;9.60;;;5.65;;
34739;SDS011;20967;48.442;9.994;2023-05-07T09:35:31;7.08;;;5.60;;
34739;SDS011;20967;48.442;9.994;2023-05-07T09:37:59;13.80;;;6.20;;
34739;SDS011;20967;48.442;9.994;2023-05-07T09:40:27;9.55;;;5.97;;
34739;SDS011;20967;48.442;9.994;2023-05-07T09:42:55;10.08;;;6.40;;
34739;SDS011;20967;48.442;9.994;2023-05-07T09:45:26;15.70;;;6.08;;
34739;SDS011;20967;48.442;9.994;2023-05-07T09:47:57;12.60;;;6.30;;
34739;SDS011;20967;48.442;9.994;2023-05-07T09:50:28;7.92;;;5.65;;
34739;SDS011;20967;48.442;9.994;2023-05-07T09:52:56;7.50;;;5.03;;
34739;SDS011;20967;48.442;9.994;2023-05-07T09:55:24;8.55;;;5.80;;
34739;SDS011;20967;48.442;9.994;2023-05-07T09:57:53;11.40;;;6.70;;
34739;SDS011;20967;48.442;9.994;2023-05-07T10:00:22;9.98;;;6.08;;
34739;SDS011;20967;48.442;9.994;2023-05-07T10:02:50;8.95;;;6.92;;
34739;SDS011;20967;48.442;9.994;2023-05-07T10:05:21;9.15;;;6.50;;
34739;SDS011;20967;48.442;9.994;2023-05-07T10:07:49;12.40;;;5.97;;
34739;SDS011;20967;48.442;9.994;2023-05-07T10:10:17;9.00;;;5.42;;
34739;SDS011;20967;48.442;9.994;2023-05-07T10:12:47;8.73;;;6.15;;
34739;SDS011;20967;48.442;9.994;2023-05-07T10:15:14;8.28;;;6.05;;
34739;SDS011;20967;48.442;9.994;2023-05-07T10:17:41;9.05;;;6.20;;
34739;SDS011;20967;48.442;9.994;2023-05-07T10:20:11;11.50;;;6.40;;
34739;SDS011;20967;48.442;9.994;2023-05-07T10:22:39;9.93;;;6.60;;
34739;SDS011;20967;48.442;9.994;2023-05-07T10:25:09;14.40;;;6.80;;
34739;SDS011;20967;48.442;9.994;2023-05-07T10:27:37;8.78;;;6.05;;
34739;SDS011;20967;48.442;9.994;2023-05-07T10:35:11;9.88;;;5.85;;
34739;SDS011;20967;48.442;9.994;2023-05-07T10:37:39;11.05;;;6.90;;
34739;SDS011;20967;48.442;9.994;2023-05-07T10:40:07;7.97;;;6.05;;
34739;SDS011;20967;48.442;9.994;2023-05-07T10:42:36;10.95;;;6.50;;
34739;SDS011;20967;48.442;9.994;2023-05-07T10:45:16;14.93;;;8.55;;
34739;SDS011;20967;48.442;9.994;2023-05-07T10:52:39;9.68;;;7.15;;
34739;SDS011;20967;48.442;9.994;2023-05-07T11:07:57;11.00;;;7.05;;
34739;SDS011;20967;48.442;9.994;2023-05-07T11:12:57;11.40;;;6.75;;
34739;SDS011;20967;48.442;9.994;2023-05-07T11:15:37;12.30;;;7.47;;
34739;SDS011;20967;48.442;9.994;2023-05-07T11:20:44;11.45;;;6.80;;
34739;SDS011;20967;48.442;9.994;2023-05-07T11:25:41;11.05;;;7.12;;
34739;SDS011;20967;48.442;9.994;2023-05-07T11:28:11;12.53;;;6.72;;
34739;SDS011;20967;48.442;9.994;2023-05-07T11:30:38;9.80;;;6.78;;
34739;SDS011;20967;48.442;9.994;2023-05-07T11:33:08;11.12;;;6.85;;
34739;SDS011;20967;48.442;9.994;2023-05-07T11:35:35;8.13;;;6.60;;
34739;SDS011;20967;48.442;9.994;2023-05-07T11:38:06;10.43;;;5.85;;
34739;SDS011;20967;48.442;9.994;2023-05-07T11:40:33;9.88;;;5.92;;
34739;SDS011;20967;48.442;9.994;2023-05-07T11:43:10;10.35;;;5.40;;
34739;SDS011;20967;48.442;9.994;2023-05-07T11:45:30;15.53;;;6.62;;
34739;SDS011;20967;48.442;9.994;2023-05-07T11:47:58;13.53;;;7.20;;
34739;SDS011;20967;48.442;9.994;2023-05-07T11:50:25;11.88;;;6.37;;
34739;SDS011;20967;48.442;9.994;2023-05-07T11:52:53;11.97;;;6.30;;
34739;SDS011;20967;48.442;9.994;2023-05-07T11:55:20;8.03;;;5.60;;
34739;SDS011;20967;48.442;9.994;2023-05-07T11:57:49;13.55;;;5.37;;
34739;SDS011;20967;48.442;9.994;2023-05-07T12:00:16;9.30;;;5.60;;
34739;SDS011;20967;48.442;9.994;2023-05-07T12:02:45;14.87;;;5.53;;
34739;SDS011;20967;48.442;9.994;2023-05-07T12:05:12;7.00;;;5.47;;
34739;SDS011;20967;48.442;9.994;2023-05-07T12:07:40;11.12;;;5.72;;
34739;SDS011;20967;48.442;9.994;2023-05-07T12:10:07;8.13;;;5.53;;
34739;SDS011;20967;48.442;9.994;2023-05-07T12:12:45;7.25;;;5.20;;
34739;SDS011;20967;48.442;9.994;2023-05-07T12:15:08;6.83;;;5.10;;
34739;SDS011;20967;48.442;9.994;2023-05-07T12:17:36;6.17;;;4.40;;
34739;SDS011;20967;48.442;9.994;2023-05-07T12:20:04;8.40;;;4.37;;
34739;SDS011;20967;48.442;9.994;2023-05-07T12:22:32;5.37;;;3.90;;
34739;SDS011;20967;48.442;9.994;2023-05-07T12:25:00;4.87;;;3.72;;
34739;SDS011;20967;48.442;9.994;2023-05-07T12:27:28;5.33;;;3.70;;
34739;SDS011;20967;48.442;9.994;2023-05-07T12:29:57;6.12;;;4.10;;
34739;SDS011;20967;48.442;9.994;2023-05-07T12:32:26;5.90;;;3.50;;
34739;SDS011;20967;48.442;9.994;2023-05-07T12:34:54;6.87;;;3.62;;
34739;SDS011;20967;48.442;9.994;2023-05-07T12:37:25;5.35;;;3.77;;
34739;SDS011;20967;48.442;9.994;2023-05-07T12:40:05;5.40;;;3.27;;
34739;SDS011;20967;48.442;9.994;2023-05-07T12:42:36;4.65;;;2.30;;
34739;SDS011;20967;48.442;9.994;2023-05-07T12:45:10;3.05;;;2.40;;
34739;SDS011;20967;48.442;9.994;2023-05-07T12:47:38;4.78;;;2.80;;
34739;SDS011;20967;48.442;9.994;2023-05-07T12:50:06;6.97;;;2.42;;
34739;SDS011;20967;48.442;9.994;2023-05-07T12:52:33;4.42;;;3.02;;
34739;SDS011;20967;48.442;9.994;2023-05-07T12:55:04;5.03;;;2.55;;
34739;SDS011;20967;48.442;9.994;2023-05-07T12:57:39;4.92;;;2.70;;
34739;SDS011;20967;48.442;9.994;2023-05-07T13:02:34;4.55;;;2.70;;
34739;SDS011;20967;48.442;9.994;2023-05-07T13:05:02;4.45;;;2.35;;
34739;SDS011;20967;48.442;9.994;2023-05-07T13:07:32;4.15;;;2.45;;
34739;SDS011;20967;48.442;9.994;2023-05-07T13:09:59;5.30;;;2.25;;
34739;SDS011;20967;48.442;9.994;2023-05-07T13:12:27;3.02;;;2.08;;
34739;SDS011;20967;48.442;9.994;2023-05-07T13:14:54;4.17;;;2.30;;
34739;SDS011;20967;48.442;9.994;2023-05-07T13:17:22;4.78;;;2.90;;
34739;SDS011;20967;48.442;9.994;2023-05-07T13:19:49;5.25;;;1.90;;
34739;SDS011;20967;48.442;9.994;2023-05-07T13:22:17;4.15;;;2.30;;
34739;SDS011;20967;48.442;9.994;2023-05-07T13:24:45;4.45;;;2.30;;
34739;SDS011;20967;48.442;9.994;2023-05-07T13:27:12;4.90;;;1.85;;
34739;SDS011;20967;48.442;9.994;2023-05-07T13:29:41;5.55;;;2.12;;
34739;SDS011;20967;48.442;9.994;2023-05-07T13:32:09;4.03;;;2.22;;
34739;SDS011;20967;48.442;9.994;2023-05-07T13:34:37;5.22;;;2.52;;
34739;SDS011;20967;48.442;9.994;2023-05-07T13:37:04;3.10;;;1.82;;
34739;SDS011;20967;48.442;9.994;2023-05-07T13:39:32;4.12;;;2.27;;
34739;SDS011;20967;48.442;9.994;2023-05-07T13:41:59;4.65;;;2.60;;
34739;SDS011;20967;48.442;9.994;2023-05-07T13:44:27;3.70;;;2.10;;
34739;SDS011;20967;48.442;9.994;2023-05-07T13:46:54;3.55;;;2.47;;
34739;SDS011;20967;48.442;9.994;2023-05-07T13:49:22;4.80;;;2.33;;
34739;SDS011;20967;48.442;9.994;2023-05-07T13:51:50;3.58;;;2.52;;
34739;SDS011;20967;48.442;9.994;2023-05-07T13:54:22;3.62;;;2.00;;
34739;SDS011;20967;48.442;9.994;2023-05-07T13:56:50;3.50;;;1.72;;
34739;SDS011;20967;48.442;9.994;2023-05-07T13:59:17;3.70;;;2.50;;
34739;SDS011;20967;48.442;9.994;2023-05-07T14:01:45;5.22;;;2.17;;
34739;SDS011;20967;48.442;9.994;2023-05-07T14:04:13;6.70;;;1.95;;
34739;SDS011;20967;48.442;9.994;2023-05-07T14:06:41;6.70;;;2.27;;
34739;SDS011;20967;48.442;9.994;2023-05-07T14:09:12;1.92;;;1.72;;
34739;SDS011;20967;48.442;9.994;2023-05-07T14:11:41;4.10;;;1.77;;
34739;SDS011;20967;48.442;9.994;2023-05-07T14:14:08;4.33;;;1.77;;
34739;SDS011;20967;48.442;9.994;2023-05-07T14:16:39;4.28;;;1.77;;
34739;SDS011;20967;48.442;9.994;2023-05-07T14:19:06;3.70;;;1.85;;
34739;SDS011;20967;48.442;9.994;2023-05-07T14:21:34;4.33;;;1.90;;
34739;SDS011;20967;48.442;9.994;2023-05-07T14:24:01;3.47;;;2.00;;
34739;SDS011;20967;48.442;9.994;2023-05-07T14:26:29;5.55;;;2.00;;
34739;SDS011;20967;48.442;9.994;2023-05-07T14:28:57;3.92;;;2.08;;
34739;SDS011;20967;48.442;9.994;2023-05-07T14:31:26;2.17;;;1.70;;
34739;SDS011;20967;48.442;9.994;2023-05-07T14:33:53;7.37;;;2.25;;
34739;SDS011;20967;48.442;9.994;2023-05-07T14:36:21;2.05;;;1.75;;
34739;SDS011;20967;48.442;9.994;2023-05-07T14:38:50;5.97;;;1.90;;
34739;SDS011;20967;48.442;9.994;2023-05-07T14:41:17;4.78;;;2.00;;
34739;SDS011;20967;48.442;9.994;2023-05-07T14:43:45;10.05;;;2.40;;
34739;SDS011;20967;48.442;9.994;2023-05-07T14:46:19;4.75;;;1.80;;
34739;SDS011;20967;48.442;9.994;2023-05-07T14:48:46;8.00;;;2.33;;
34739;SDS011;20967;48.442;9.994;2023-05-07T14:51:14;4.72;;;2.00;;
34739;SDS011;20967;48.442;9.994;2023-05-07T14:53:41;9.98;;;2.12;;
34739;SDS011;20967;48.442;9.994;2023-05-07T14:56:12;4.33;;;1.92;;
34739;SDS011;20967;48.442;9.994;2023-05-07T14:58:39;2.62;;;2.10;;
34739;SDS011;20967;48.442;9.994;2023-05-07T15:01:07;4.05;;;1.95;;
34739;SDS011;20967;48.442;9.994;2023-05-07T15:03:34;6.17;;;2.00;;
34739;SDS011;20967;48.442;9.994;2023-05-07T15:06:02;9.90;;;2.33;;
34739;SDS011;20967;48.442;9.994;2023-05-07T15:08:29;3.42;;;2.20;;
34739;SDS011;20967;48.442;9.994;2023-05-07T15:10:57;4.80;;;1.90;;
34739;SDS011;20967;48.442;9.994;2023-05-07T15:13:24;9.90;;;1.95;;
34739;SDS011;20967;48.442;9.994;2023-05-07T15:15:52;4.87;;;2.30;;
34739;SDS011;20967;48.442;9.994;2023-05-07T15:18:19;3.92;;;2.50;;
34739;SDS011;20967;48.442;9.994;2023-05-07T15:20:47;4.03;;;2.42;;
34739;SDS011;20967;48.442;9.994;2023-05-07T15:23:14;4.55;;;2.52;;